Aérodrome :
LOGIN :

S'inscrire | Disclaimer

   EN    FR    IT 

 










Légende :    VFR   VFR Marginal   IFR   IFR Intensif   IFR Très Intensif
Visi : 
Plafond : 
>= 8 km
>= 3000ft
5 à 8 km
1000 à 3000 ft
1500m à 5 km
500 à 1000 ft
800 à 1500m
200 à 500 ft
< 800m
< 200 ft
Symboles :   Orages  Brouillard  Fortes neiges  Fortes précipitations  Vent > 20 kt
SIGMETs :   Divers  Orages  Givrage  Turbulence  Onde Orograph.  Cendres Volcan.






- Altitude de l'aérodrome : 158 ft
- Code IATA : QAR


EHDL - Deelen Airbase

DERNIER METAR :
  • 040625Z AUTO 20013KT 140V260 9999 FEW017 BKN030 OVC034 15/14 Q1013 BLU

METARs EXPIRÉS :
  • 040555Z AUTO 20011KT 140V250 9999 OVC032 15/14 Q1013 BLU
  • 040525Z AUTO 20012KT 120V250 9999 BKN027 OVC031 14/14 Q1013 BLU
  • 040455Z AUTO 20010KT 160V250 9999 -RADZ OVC030 14/13 Q1014 BLU
  • 040425Z AUTO 21012KT 140V270 9999 DZ FEW017 OVC034 14/13 Q1014 BLU
  • 040355Z AUTO 22011KT 150V270 9999 DZ FEW017 BKN020 OVC023 14/13 Q1014 WHT

Prévision TAF périmée.



MET'MAP, la Météo Aéronautique d'un coup d'oeil ! - Copyright ORBIFLY Décembre 2007 - Disclaimer

ORBIFLY MET'MAP TEAM :

Programmation & Développement : Alexandra Zaïnal
Sur une idée originale de : Baudouin d'Aumeries
Assistance à la programmation : Marc-Olivier Méhu
Soutien technique & logistique : Manuel Goepfert

Contact : metmap@orbifly.com




SOURCES & CREDITS :

   NOAA